createdAt,value
2019-02-21T00:00:03.608Z,101512.05
2019-02-21T00:02:32.003Z,101512.34
2019-02-21T00:05:00.434Z,101517.52
2019-02-21T00:07:28.840Z,101517.31
2019-02-21T00:09:57.274Z,101516.94
2019-02-21T00:12:25.731Z,101520.55
2019-02-21T00:14:54.130Z,101514.34
2019-02-21T00:17:22.526Z,101512.63
2019-02-21T00:19:50.957Z,101514.49
2019-02-21T00:22:19.398Z,101516.88
2019-02-21T00:24:47.823Z,101522.84
2019-02-21T00:27:16.251Z,101519.38
2019-02-21T00:29:44.667Z,101525.57
2019-02-21T00:32:13.079Z,101520.73
2019-02-21T00:34:41.496Z,101525.71
2019-02-21T00:37:09.954Z,101523.61
2019-02-21T00:39:38.395Z,101521.75
2019-02-21T00:42:06.843Z,101528.59
2019-02-21T00:44:35.285Z,101526.00
2019-02-21T00:47:03.719Z,101526.34
2019-02-21T00:49:32.148Z,101523.12
2019-02-21T00:52:02.638Z,101525.13
2019-02-21T00:54:30.713Z,101517.95
2019-02-21T00:56:59.153Z,101527.86
2019-02-21T00:59:27.587Z,101526.63
2019-02-21T01:01:56.029Z,101533.47
2019-02-21T01:04:24.466Z,101535.36
2019-02-21T01:06:52.901Z,101526.78
2019-02-21T01:09:21.341Z,101534.48
2019-02-21T01:11:49.804Z,101535.50
2019-02-21T01:14:18.252Z,101544.20
2019-02-21T01:16:46.689Z,101542.83
2019-02-21T01:19:15.106Z,101549.66
2019-02-21T01:21:43.603Z,101553.76
2019-02-21T01:24:12.012Z,101549.31
2019-02-21T01:26:40.456Z,101546.58
2019-02-21T01:29:08.886Z,101551.66
2019-02-21T01:31:37.322Z,101546.92
2019-02-21T01:34:05.736Z,101546.72
2019-02-21T01:36:34.178Z,101543.11
2019-02-21T01:39:02.582Z,101539.36
2019-02-21T01:41:31.108Z,101540.03
2019-02-21T01:43:59.515Z,101540.52
2019-02-21T01:46:27.950Z,101541.39
2019-02-21T01:48:56.385Z,101545.11
2019-02-21T01:51:24.899Z,101539.30
2019-02-21T01:53:53.326Z,101545.11
2019-02-21T01:56:21.748Z,101547.50
2019-02-21T01:58:50.164Z,101546.48
2019-02-21T02:01:18.587Z,101546.13
2019-02-21T02:03:47.123Z,101547.14
2019-02-21T02:06:15.538Z,101541.69
2019-02-21T02:08:43.966Z,101542.17
2019-02-21T02:11:12.372Z,101536.85
2019-02-21T02:13:40.804Z,101547.40
2019-02-21T02:16:09.246Z,101550.86
2019-02-21T02:18:37.684Z,101546.41
2019-02-21T02:21:06.768Z,101551.00
2019-02-21T02:23:35.218Z,101552.37
2019-02-21T02:26:03.740Z,101551.50
2019-02-21T02:28:32.158Z,101550.66
2019-02-21T02:31:00.572Z,101546.03
2019-02-21T02:33:29.013Z,101548.77
2019-02-21T02:35:57.431Z,101546.55
2019-02-21T02:38:25.857Z,101549.50
2019-02-21T02:40:54.262Z,101548.91
2019-02-21T02:43:22.695Z,101544.66
2019-02-21T02:45:51.107Z,101547.92
2019-02-21T02:48:19.543Z,101551.15
2019-02-21T02:50:47.980Z,101545.68
2019-02-21T02:53:16.429Z,101552.66
2019-02-21T02:55:44.862Z,101552.02
2019-02-21T02:58:13.643Z,101549.72
2019-02-21T03:00:42.088Z,101557.77
2019-02-21T03:03:10.497Z,101560.36
2019-02-21T03:05:38.910Z,101556.89
2019-02-21T03:08:07.354Z,101562.85
2019-02-21T03:10:35.770Z,101563.38
2019-02-21T03:13:04.209Z,101566.11
2019-02-21T03:15:32.653Z,101572.55
2019-02-21T03:18:01.143Z,101570.34
2019-02-21T03:20:29.575Z,101564.88
2019-02-21T03:22:58.033Z,101567.09
2019-02-21T03:25:27.355Z,101564.88
2019-02-21T03:27:55.783Z,101562.29
2019-02-21T03:30:24.197Z,101562.29
2019-02-21T03:32:54.760Z,101565.66
2019-02-21T03:35:23.214Z,101565.30
2019-02-21T03:37:51.638Z,101572.00
2019-02-21T03:40:20.036Z,101582.78
2019-02-21T03:42:48.475Z,101581.03
2019-02-21T03:45:16.965Z,101585.86
2019-02-21T03:47:45.393Z,101588.59
2019-02-21T03:50:13.971Z,101591.68
2019-02-21T03:52:42.365Z,101591.68
2019-02-21T03:55:10.809Z,101592.70
2019-02-21T03:57:39.249Z,101601.62
2019-02-21T04:00:13.723Z,101601.24
2019-02-21T04:02:42.145Z,101603.34
2019-02-21T04:05:10.631Z,101601.24
2019-02-21T04:07:39.049Z,101608.95
2019-02-21T04:10:09.129Z,101607.09
2019-02-21T04:12:37.536Z,101600.26
2019-02-21T04:15:11.353Z,101601.62
2019-02-21T04:17:39.778Z,101601.62
2019-02-21T04:20:09.550Z,101599.87
2019-02-21T04:22:37.963Z,101596.65
2019-02-21T04:25:06.949Z,101595.78
2019-02-21T04:27:35.363Z,101597.28
2019-02-21T04:30:04.083Z,101588.95
2019-02-21T04:32:32.481Z,101583.87
2019-02-21T04:35:00.915Z,101587.30
2019-02-21T04:37:29.325Z,101584.95
2019-02-21T04:39:57.727Z,101587.68
2019-02-21T04:42:26.153Z,101585.58
2019-02-21T04:44:54.559Z,101590.41
2019-02-21T04:47:22.985Z,101588.66
2019-02-21T04:49:51.431Z,101597.88
2019-02-21T04:52:19.859Z,101585.58
2019-02-21T04:54:48.293Z,101589.68
2019-02-21T04:57:16.735Z,101591.40
2019-02-21T04:59:45.140Z,101594.27
2019-02-21T05:02:13.565Z,101600.61
2019-02-21T05:04:41.977Z,101596.16
2019-02-21T05:07:10.407Z,101599.24
2019-02-21T05:09:38.819Z,101600.47
2019-02-21T05:12:07.250Z,101599.24
2019-02-21T05:14:35.664Z,101602.47
2019-02-21T05:17:04.117Z,101600.61
2019-02-21T05:19:32.518Z,101602.19
2019-02-21T05:22:00.933Z,101613.64
2019-02-21T05:24:29.347Z,101610.91
2019-02-21T05:26:59.398Z,101609.02
2019-02-21T05:29:27.845Z,101606.56
2019-02-21T05:31:57.907Z,101612.03
2019-02-21T05:34:30.863Z,101606.56
2019-02-21T05:37:17.381Z,101601.10
2019-02-21T05:40:02.949Z,101597.52
2019-02-21T05:42:48.042Z,101589.09
2019-02-21T05:45:27.115Z,101580.05
2019-02-21T05:48:06.454Z,101582.12
2019-02-21T05:50:36.513Z,101585.86
2019-02-21T05:53:06.588Z,101591.82
2019-02-21T05:55:36.667Z,101583.63
2019-02-21T05:58:22.883Z,101586.50
2019-02-21T06:01:01.800Z,101588.88
2019-02-21T06:03:47.162Z,101583.77
2019-02-21T06:06:22.985Z,101573.36
2019-02-21T06:08:58.803Z,101576.58
2019-02-21T06:11:31.334Z,101572.48
2019-02-21T06:14:13.794Z,101574.87
2019-02-21T06:16:49.619Z,101578.97
2019-02-21T06:19:22.123Z,101583.63
2019-02-21T06:22:10.101Z,101595.08
2019-02-21T06:24:33.075Z,101595.42
2019-02-21T06:27:03.155Z,101591.33
2019-02-21T06:29:34.058Z,101590.31
2019-02-21T06:32:13.522Z,101596.65
2019-02-21T06:34:32.803Z,101593.05
2019-02-21T06:37:01.239Z,101600.26
2019-02-21T06:39:29.681Z,101598.51
2019-02-21T06:41:59.853Z,101605.72
2019-02-21T06:44:28.243Z,101614.41
2019-02-21T06:46:56.696Z,101614.41
2019-02-21T06:49:32.650Z,101617.73
2019-02-21T06:51:55.249Z,101625.94
2019-02-21T06:54:23.667Z,101613.50
2019-02-21T06:56:52.080Z,101610.97
2019-02-21T06:59:20.525Z,101608.62
2019-02-21T07:01:48.966Z,101616.44
2019-02-21T07:04:17.384Z,101618.19
2019-02-21T07:06:45.834Z,101625.52
2019-02-21T07:09:14.244Z,101624.64
2019-02-21T07:11:42.700Z,101625.38
2019-02-21T07:14:11.155Z,101644.70
2019-02-21T07:16:39.567Z,101640.27
2019-02-21T07:19:07.974Z,101641.62
2019-02-21T07:21:36.684Z,101653.05
2019-02-21T07:24:05.122Z,101647.83
2019-02-21T07:26:33.532Z,101644.56
2019-02-21T07:29:02.052Z,101649.69
2019-02-21T07:31:32.530Z,101650.91
2019-02-21T07:34:01.656Z,101647.69
2019-02-21T07:36:30.443Z,101648.17
2019-02-21T07:39:13.944Z,101639.98
2019-02-21T07:41:29.004Z,101653.50
2019-02-21T07:43:57.453Z,101658.09
2019-02-21T07:46:25.902Z,101651.86
2019-02-21T07:48:54.386Z,101661.28
2019-02-21T07:51:22.818Z,101660.13
2019-02-21T07:53:51.232Z,101661.14
2019-02-21T07:56:19.680Z,101662.02
2019-02-21T07:58:48.088Z,101665.09
2019-02-21T08:01:17.516Z,101668.33
2019-02-21T08:03:48.542Z,101667.69
2019-02-21T08:06:16.288Z,101679.99
2019-02-21T08:08:45.069Z,101679.99
2019-02-21T08:11:13.788Z,101683.88
2019-02-21T08:13:42.239Z,101679.01
2019-02-21T08:16:12.541Z,101676.17
2019-02-21T08:18:40.893Z,101681.36
2019-02-21T08:21:09.252Z,101680.38
2019-02-21T08:23:37.678Z,101683.11
2019-02-21T08:26:06.109Z,101687.77
2019-02-21T08:28:34.522Z,101681.08
2019-02-21T08:31:02.978Z,101683.95
2019-02-21T08:33:33.078Z,101689.80
2019-02-21T08:36:01.485Z,101692.75
2019-02-21T08:38:29.912Z,101691.37
2019-02-21T08:40:58.354Z,101694.11
2019-02-21T08:43:26.766Z,101686.55
2019-02-21T08:45:57.479Z,101688.16
2019-02-21T08:48:25.341Z,101687.63
2019-02-21T08:50:53.782Z,101694.11
2019-02-21T08:53:22.237Z,101693.34
2019-02-21T08:55:50.634Z,101691.83
2019-02-21T08:58:19.073Z,101701.40
2019-02-21T09:00:47.485Z,101699.65
2019-02-21T09:03:17.999Z,101698.80
2019-02-21T09:05:46.249Z,101709.95
2019-02-21T09:08:16.594Z,101708.23
2019-02-21T09:10:44.981Z,101711.32
2019-02-21T09:13:13.457Z,101707.57
2019-02-21T09:15:41.880Z,101713.42
2019-02-21T09:18:10.307Z,101706.06
2019-02-21T09:20:38.732Z,101709.32
2019-02-21T09:23:07.146Z,101707.95
2019-02-21T09:25:35.705Z,101711.03
2019-02-21T09:28:04.130Z,101714.13
2019-02-21T09:30:32.552Z,101724.08
2019-02-21T09:33:00.986Z,101719.59
2019-02-21T09:35:29.404Z,101718.22
2019-02-21T09:37:57.904Z,101714.13
2019-02-21T09:40:28.549Z,101711.25
2019-02-21T09:42:56.786Z,101711.91
2019-02-21T09:45:25.223Z,101709.73
2019-02-21T09:47:53.642Z,101699.82
2019-02-21T09:50:22.071Z,101703.29
2019-02-21T09:52:50.477Z,101707.39
2019-02-21T09:55:19.041Z,101707.73
2019-02-21T09:57:47.471Z,101703.64
2019-02-21T10:00:21.135Z,101708.27
2019-02-21T10:02:49.558Z,101711.70
2019-02-21T10:05:18.130Z,101707.11
2019-02-21T10:07:46.577Z,101705.39
2019-02-21T10:10:20.786Z,101704.72
2019-02-21T10:12:49.221Z,101708.83
2019-02-21T10:15:17.786Z,101721.37
2019-02-21T10:17:46.216Z,101719.48
2019-02-21T10:20:22.436Z,101720.22
2019-02-21T10:22:51.019Z,101719.73
2019-02-21T10:25:28.047Z,101723.30
2019-02-21T10:27:58.882Z,101724.67
2019-02-21T10:30:26.637Z,101721.09
2019-02-21T10:32:55.075Z,101721.94
2019-02-21T10:35:23.493Z,101721.94
2019-02-21T10:37:51.933Z,101725.05
2019-02-21T10:40:20.824Z,101725.05
2019-02-21T10:42:49.222Z,101722.17
2019-02-21T10:45:19.870Z,101718.95
2019-02-21T10:47:48.381Z,101726.28
2019-02-21T10:50:19.282Z,101722.06
2019-02-21T10:52:48.149Z,101719.33
2019-02-21T10:55:17.929Z,101710.02
2019-02-21T10:57:46.412Z,101711.48
2019-02-21T11:00:27.037Z,101704.78
2019-02-21T11:02:55.492Z,101717.97
2019-02-21T11:05:23.914Z,101710.60
2019-02-21T11:07:52.356Z,101712.11
2019-02-21T11:10:30.798Z,101714.39
2019-02-21T11:12:59.201Z,101709.07
2019-02-21T11:15:27.652Z,101708.19
2019-02-21T11:17:56.056Z,101712.30
2019-02-21T11:20:24.561Z,101710.58
2019-02-21T11:22:52.969Z,101704.44
2019-02-21T11:25:21.384Z,101696.77
2019-02-21T11:27:49.843Z,101696.91
2019-02-21T11:30:21.880Z,101691.05
2019-02-21T11:32:50.368Z,101688.32
2019-02-21T11:35:18.804Z,101690.07
2019-02-21T11:37:47.712Z,101682.01
2019-02-21T11:40:17.357Z,101685.58
2019-02-21T11:42:45.930Z,101685.52
2019-02-21T11:45:19.324Z,101675.81
2019-02-21T11:47:47.879Z,101676.93
2019-02-21T11:50:17.439Z,101671.11
2019-02-21T11:52:46.053Z,101673.98
2019-02-21T11:55:23.146Z,101675.56
2019-02-21T11:57:51.579Z,101665.30
2019-02-21T12:00:22.228Z,101667.51
2019-02-21T12:02:50.658Z,101672.62
2019-02-21T12:05:30.229Z,101674.86
2019-02-21T12:07:49.238Z,101672.62
2019-02-21T12:10:17.666Z,101674.48
2019-02-21T12:12:46.079Z,101664.56
2019-02-21T12:15:15.862Z,101675.64
2019-02-21T12:17:44.585Z,101674.91
2019-02-21T12:20:17.125Z,101671.39
2019-02-21T12:22:45.541Z,101672.41
2019-02-21T12:25:18.647Z,101672.41
2019-02-21T12:27:47.066Z,101664.70
2019-02-21T12:30:17.535Z,101670.66
2019-02-21T12:32:46.024Z,101670.17
2019-02-21T12:35:14.987Z,101666.56
2019-02-21T12:37:43.585Z,101659.52
2019-02-21T12:40:17.303Z,101661.77
2019-02-21T12:42:45.730Z,101659.73
2019-02-21T12:45:25.577Z,101652.55
2019-02-21T12:47:54.321Z,101651.18
2019-02-21T12:50:22.888Z,101655.28
2019-02-21T12:52:51.307Z,101652.55
2019-02-21T12:55:27.549Z,101651.91
2019-02-21T12:57:49.897Z,101644.55
2019-02-21T13:00:22.377Z,101637.86
2019-02-21T13:02:50.745Z,101627.80
2019-02-21T13:05:19.180Z,101635.12
2019-02-21T13:07:47.607Z,101627.31
2019-02-21T13:10:18.323Z,101628.30
2019-02-21T13:12:46.827Z,101629.31
2019-02-21T13:15:15.802Z,101617.36
2019-02-21T13:17:44.225Z,101616.52
2019-02-21T13:20:14.305Z,101617.73
2019-02-21T13:22:42.913Z,101611.89
2019-02-21T13:25:16.456Z,101607.30
2019-02-21T13:27:44.899Z,101607.30
2019-02-21T13:30:18.086Z,101607.30
2019-02-21T13:32:46.677Z,101606.80
2019-02-21T13:35:15.448Z,101594.50
2019-02-21T13:37:44.039Z,101599.45
2019-02-21T13:40:17.043Z,101595.48
2019-02-21T13:42:45.479Z,101592.27
2019-02-21T13:45:17.383Z,101597.23
2019-02-21T13:47:45.557Z,101601.34
2019-02-21T13:50:18.986Z,101611.75
2019-02-21T13:52:47.404Z,101615.36
2019-02-21T13:55:16.043Z,101616.37
2019-02-21T13:57:44.590Z,101620.97
2019-02-21T14:00:23.367Z,101617.01
2019-02-21T14:02:51.808Z,101619.59
2019-02-21T14:05:20.211Z,101627.66
2019-02-21T14:07:48.650Z,101631.61
2019-02-21T14:10:17.258Z,101637.23
2019-02-21T14:12:45.679Z,101627.66
2019-02-21T14:15:17.196Z,101627.94
2019-02-21T14:17:46.691Z,101625.27
2019-02-21T14:20:15.338Z,101618.09
2019-02-21T14:22:43.778Z,101613.98
2019-02-21T14:25:12.488Z,101613.64
2019-02-21T14:27:40.906Z,101615.70
2019-02-21T14:30:12.402Z,101615.07
2019-02-21T14:32:40.893Z,101613.84
2019-02-21T14:35:11.589Z,101609.75
2019-02-21T14:37:40.070Z,101611.11
2019-02-21T14:40:12.531Z,101609.39
2019-02-21T14:42:41.001Z,101610.03
2019-02-21T14:45:15.378Z,101609.16
2019-02-21T14:47:43.792Z,101607.79
2019-02-21T14:50:13.588Z,101606.95
2019-02-21T14:52:42.013Z,101606.42
2019-02-21T14:55:12.970Z,101604.22
2019-02-21T14:57:41.538Z,101592.75
2019-02-21T15:00:18.627Z,101592.41
2019-02-21T15:02:47.035Z,101593.28
2019-02-21T15:05:15.621Z,101588.80
2019-02-21T15:07:44.062Z,101586.94
2019-02-21T15:10:12.658Z,101587.00
2019-02-21T15:12:41.070Z,101582.12
2019-02-21T15:15:26.345Z,101589.19
2019-02-21T15:18:06.657Z,101591.78
2019-02-21T15:20:35.840Z,101594.38
2019-02-21T15:22:55.061Z,101602.20
2019-02-21T15:25:23.513Z,101600.39
2019-02-21T15:27:51.955Z,101604.00
2019-02-21T15:30:22.842Z,101606.83
2019-02-21T15:32:51.287Z,101607.23
2019-02-21T15:37:48.344Z,101611.57
2019-02-21T15:40:16.776Z,101610.94
2019-02-21T15:42:45.191Z,101606.83
2019-02-21T15:45:22.902Z,101606.69
2019-02-21T15:47:46.498Z,101612.69
2019-02-21T15:50:15.546Z,101612.89
2019-02-21T15:52:45.393Z,101610.20
2019-02-21T15:55:16.092Z,101605.20
2019-02-21T15:57:44.514Z,101599.66
2019-02-21T16:00:18.628Z,101613.48
2019-02-21T16:02:47.120Z,101607.87
2019-02-21T16:05:15.618Z,101611.52
2019-02-21T16:07:44.031Z,101615.62
2019-02-21T16:10:18.335Z,101616.00
2019-02-21T16:12:47.514Z,101614.63
2019-02-21T16:15:16.783Z,101614.88
2019-02-21T16:17:45.516Z,101612.53
2019-02-21T16:20:16.351Z,101607.84
2019-02-21T16:22:45.285Z,101618.19
2019-02-21T16:25:22.311Z,101620.14
2019-02-21T16:27:50.697Z,101614.61
2019-02-21T16:30:21.736Z,101611.45
2019-02-21T16:32:49.293Z,101616.96
2019-02-21T16:35:17.741Z,101615.31
2019-02-21T16:37:46.179Z,101619.80
2019-02-21T16:40:16.459Z,101611.49
2019-02-21T16:42:44.874Z,101618.61
2019-02-21T16:45:18.709Z,101613.53
2019-02-21T16:47:47.390Z,101613.95
2019-02-21T16:50:15.913Z,101619.06
2019-02-21T16:52:44.329Z,101623.52
2019-02-21T16:55:18.291Z,101625.83
2019-02-21T16:57:46.795Z,101633.14
2019-02-21T17:00:17.694Z,101631.29
2019-02-21T17:02:46.213Z,101633.84
2019-02-21T17:05:15.473Z,101638.13
2019-02-21T17:07:43.983Z,101637.75
2019-02-21T17:10:13.943Z,101642.44
2019-02-21T17:12:42.487Z,101649.66
2019-02-21T17:15:15.683Z,101653.78
2019-02-21T17:17:44.285Z,101659.84
2019-02-21T17:20:15.493Z,101667.16
2019-02-21T17:22:44.020Z,101676.39
2019-02-21T17:25:14.309Z,101673.38
2019-02-21T17:27:43.072Z,101683.13
2019-02-21T17:30:16.525Z,101676.39
2019-02-21T17:32:45.013Z,101680.84
2019-02-21T17:35:14.198Z,101678.22
2019-02-21T17:37:42.688Z,101684.77
2019-02-21T17:40:19.853Z,101681.02
2019-02-21T17:42:48.299Z,101674.20
2019-02-21T17:45:16.779Z,101681.41
2019-02-21T17:47:45.195Z,101681.91
2019-02-21T17:50:15.759Z,101688.10
2019-02-21T17:52:44.216Z,101691.46
2019-02-21T17:55:12.730Z,101690.84
2019-02-21T17:57:41.155Z,101693.29
2019-02-21T18:00:19.565Z,101691.13
2019-02-21T18:02:48.019Z,101696.86
2019-02-21T18:05:16.501Z,101693.15
2019-02-21T18:07:44.937Z,101699.84
2019-02-21T18:10:15.089Z,101704.16
2019-02-21T18:12:43.538Z,101707.77
2019-02-21T18:15:16.253Z,101711.72
2019-02-21T18:17:44.692Z,101710.71
2019-02-21T18:20:15.087Z,101712.70
2019-02-21T18:22:43.593Z,101712.95
2019-02-21T18:25:18.127Z,101716.03
2019-02-21T18:27:46.581Z,101714.80
2019-02-21T18:30:16.933Z,101714.80
2019-02-21T18:32:45.378Z,101718.91
2019-02-21T18:35:14.129Z,101725.59
2019-02-21T18:37:47.494Z,101724.62
2019-02-21T18:40:21.326Z,101726.48
2019-02-21T18:42:49.935Z,101727.35
2019-02-21T18:45:18.362Z,101723.11
2019-02-21T18:47:46.838Z,101717.79
2019-02-21T18:50:15.708Z,101718.63
2019-02-21T18:52:44.213Z,101718.49
2019-02-21T18:55:12.842Z,101723.47
2019-02-21T18:57:41.263Z,101726.34
2019-02-21T19:00:13.165Z,101719.37
2019-02-21T19:02:41.585Z,101720.38
2019-02-21T19:05:10.097Z,101715.27
2019-02-21T19:07:38.622Z,101710.44
2019-02-21T19:10:12.642Z,101706.77
2019-02-21T19:12:41.091Z,101715.00
2019-02-21T19:15:11.255Z,101719.13
2019-02-21T19:17:39.756Z,101720.01
2019-02-21T19:20:15.797Z,101724.67
2019-02-21T19:22:44.209Z,101720.78
2019-02-21T19:25:13.694Z,101724.95
2019-02-21T19:27:42.185Z,101721.09
2019-02-21T19:30:19.731Z,101716.47
2019-02-21T19:32:48.252Z,101724.02
2019-02-21T19:35:17.134Z,101728.28
2019-02-21T19:37:45.552Z,101716.77
2019-02-21T19:40:14.225Z,101723.16
2019-02-21T19:42:42.652Z,101723.31
2019-02-21T19:45:11.231Z,101722.95
2019-02-21T19:51:14.666Z,101727.95
2019-02-21T19:53:43.070Z,101725.66
2019-02-21T19:56:11.510Z,101728.87
2019-02-21T19:58:39.942Z,101733.38
2019-02-21T20:01:08.430Z,101732.93
2019-02-21T20:03:37.024Z,101734.35
2019-02-21T20:06:05.576Z,101734.00
2019-02-21T20:08:34.016Z,101734.87
2019-02-21T20:11:02.476Z,101735.45
2019-02-21T20:13:30.878Z,101740.78
2019-02-21T20:15:59.319Z,101738.11
2019-02-21T20:18:27.825Z,101748.55
2019-02-21T20:20:56.238Z,101747.61
2019-02-21T20:23:24.684Z,101754.02
2019-02-21T20:25:53.165Z,101755.74
2019-02-21T20:28:21.598Z,101756.52
2019-02-21T20:30:50.023Z,101768.94
2019-02-21T20:33:18.421Z,101766.63
2019-02-21T20:35:46.839Z,101767.61
2019-02-21T20:38:15.262Z,101777.42
2019-02-21T20:40:43.668Z,101773.23
2019-02-21T20:43:12.102Z,101769.71
2019-02-21T20:45:40.536Z,101768.48
2019-02-21T20:48:08.984Z,101764.17
2019-02-21T20:50:37.420Z,101770.34
2019-02-21T20:53:05.833Z,101769.41
2019-02-21T20:55:43.294Z,101766.91
2019-02-21T20:58:04.480Z,101768.42
2019-02-21T21:00:33.062Z,101769.36
2019-02-21T21:03:01.496Z,101771.65
2019-02-21T21:05:29.974Z,101784.84
2019-02-21T21:07:58.406Z,101789.92
2019-02-21T21:10:26.822Z,101793.68
2019-02-21T21:12:55.293Z,101795.40
2019-02-21T21:15:23.733Z,101800.03
2019-02-21T21:17:52.166Z,101806.20
2019-02-21T21:20:20.597Z,101811.67
2019-02-21T21:22:48.996Z,101807.92
2019-02-21T21:25:18.334Z,101810.98
2019-02-21T21:27:46.854Z,101817.08
2019-02-21T21:30:18.658Z,101815.08
2019-02-21T21:32:47.258Z,101815.71
2019-02-21T21:35:15.784Z,101820.55
2019-02-21T21:37:44.186Z,101814.20
2019-02-21T21:40:15.406Z,101815.27
2019-02-21T21:42:43.818Z,101812.52
2019-02-21T21:45:18.122Z,101815.50
2019-02-21T21:47:46.556Z,101823.99
2019-02-21T21:50:17.129Z,101824.94
2019-02-21T21:52:45.739Z,101818.14
2019-02-21T21:55:14.411Z,101824.84
2019-02-21T21:57:43.024Z,101831.39
2019-02-21T22:00:18.092Z,101834.66
2019-02-21T22:02:46.784Z,101835.15
2019-02-21T22:05:15.218Z,101837.32
2019-02-21T22:07:43.658Z,101833.13
2019-02-21T22:10:15.942Z,101832.16
2019-02-21T22:12:44.739Z,101841.72
2019-02-21T22:15:15.428Z,101836.64
2019-02-21T22:17:43.912Z,101839.45
2019-02-21T22:20:12.405Z,101839.98
2019-02-21T22:22:40.810Z,101833.95
2019-02-21T22:25:11.624Z,101836.41
2019-02-21T22:27:40.161Z,101845.55
2019-02-21T22:30:11.631Z,101846.61
2019-02-21T22:32:40.066Z,101848.70
2019-02-21T22:35:08.823Z,101850.41
2019-02-21T22:37:37.312Z,101840.27
2019-02-21T22:40:10.742Z,101849.30
2019-02-21T22:42:39.187Z,101850.39
2019-02-21T22:45:09.137Z,101850.11
2019-02-21T22:47:37.548Z,101849.73
2019-02-21T22:50:16.906Z,101852.84
2019-02-21T22:52:45.428Z,101858.31
2019-02-21T22:55:13.887Z,101861.89
2019-02-21T22:57:42.388Z,101861.40
2019-02-21T23:00:54.453Z,101860.91
2019-02-21T23:03:25.720Z,101874.20
2019-02-21T23:06:16.912Z,101873.35
2019-02-21T23:08:48.388Z,101875.07
2019-02-21T23:11:16.802Z,101877.94
2019-02-21T23:13:45.743Z,101872.97
2019-02-21T23:16:14.180Z,101881.03
2019-02-21T23:18:42.595Z,101883.90
2019-02-21T23:21:11.006Z,101874.33
2019-02-21T23:23:39.436Z,101871.25
2019-02-21T23:26:07.857Z,101877.59
2019-02-21T23:28:36.280Z,101883.55
2019-02-21T23:31:04.695Z,101878.55
2019-02-21T23:33:34.738Z,101877.78
2019-02-21T23:36:03.732Z,101876.52
2019-02-21T23:38:32.156Z,101871.33
2019-02-21T23:41:00.594Z,101871.46
2019-02-21T23:43:29.005Z,101866.88
2019-02-21T23:45:57.498Z,101866.66
2019-02-21T23:48:25.925Z,101868.02
2019-02-21T23:50:54.352Z,101862.55
2019-02-21T23:53:22.788Z,101853.96
2019-02-21T23:55:51.190Z,101853.47
2019-02-21T23:58:19.621Z,101845.55
